sensor_id;sensor_type;location;lat;lon;timestamp;pressure;altitude;pressure_sealevel;temperature;humidity
49311;BME280;35177;45.900;5.946;2023-06-22T00:01:52;97534.78;;;17.25;83.47
49311;BME280;35177;45.900;5.946;2023-06-22T00:04:17;97535.59;;;17.35;83.31
49311;BME280;35177;45.900;5.946;2023-06-22T00:06:43;97530.34;;;17.63;81.86
49311;BME280;35177;45.900;5.946;2023-06-22T00:09:08;97526.84;;;17.53;82.26
49311;BME280;35177;45.900;5.946;2023-06-22T00:11:35;97515.03;;;17.82;81.68
49311;BME280;35177;45.900;5.946;2023-06-22T00:14:01;97524.00;;;17.64;82.31
49311;BME280;35177;45.900;5.946;2023-06-22T00:16:27;97511.88;;;17.69;81.73
49311;BME280;35177;45.900;5.946;2023-06-22T00:18:53;97521.75;;;17.50;82.60
49311;BME280;35177;45.900;5.946;2023-06-22T00:21:18;97512.19;;;17.57;82.25
49311;BME280;35177;45.900;5.946;2023-06-22T00:23:46;97509.16;;;17.32;82.56
49311;BME280;35177;45.900;5.946;2023-06-22T00:26:13;97505.38;;;17.25;82.68
49311;BME280;35177;45.900;5.946;2023-06-22T00:28:38;97506.94;;;17.18;83.51
49311;BME280;35177;45.900;5.946;2023-06-22T00:31:04;97507.91;;;17.17;85.07
49311;BME280;35177;45.900;5.946;2023-06-22T00:33:29;97499.84;;;17.36;84.02
49311;BME280;35177;45.900;5.946;2023-06-22T00:35:55;97494.81;;;17.24;83.08
49311;BME280;35177;45.900;5.946;2023-06-22T00:38:20;97490.75;;;17.10;83.26
49311;BME280;35177;45.900;5.946;2023-06-22T00:40:46;97490.91;;;17.09;83.02
49311;BME280;35177;45.900;5.946;2023-06-22T00:43:12;97486.59;;;16.79;82.41
49311;BME280;35177;45.900;5.946;2023-06-22T00:45:38;97488.41;;;16.88;83.66
49311;BME280;35177;45.900;5.946;2023-06-22T00:48:03;97484.56;;;17.10;84.70
49311;BME280;35177;45.900;5.946;2023-06-22T00:50:31;97470.47;;;17.17;84.31
49311;BME280;35177;45.900;5.946;2023-06-22T00:53:00;97474.72;;;17.10;83.66
49311;BME280;35177;45.900;5.946;2023-06-22T00:55:26;97466.72;;;17.01;83.45
49311;BME280;35177;45.900;5.946;2023-06-22T00:57:53;97477.41;;;16.91;83.88
49311;BME280;35177;45.900;5.946;2023-06-22T01:00:22;97471.94;;;17.02;83.71
49311;BME280;35177;45.900;5.946;2023-06-22T01:02:50;97465.03;;;17.09;83.78
49311;BME280;35177;45.900;5.946;2023-06-22T01:05:21;97476.59;;;17.00;84.20
49311;BME280;35177;45.900;5.946;2023-06-22T01:08:08;97483.50;;;16.93;85.82
49311;BME280;35177;45.900;5.946;2023-06-22T01:13:37;97466.72;;;16.91;85.12
49311;BME280;35177;45.900;5.946;2023-06-22T01:16:22;97462.78;;;17.05;83.64
49311;BME280;35177;45.900;5.946;2023-06-22T01:18:51;97463.50;;;16.97;84.12
49311;BME280;35177;45.900;5.946;2023-06-22T01:21:19;97468.13;;;17.14;83.63
49311;BME280;35177;45.900;5.946;2023-06-22T01:29:00;97467.06;;;16.69;84.80
49311;BME280;35177;45.900;5.946;2023-06-22T01:31:28;97461.00;;;16.86;87.00
49311;BME280;35177;45.900;5.946;2023-06-22T01:34:05;97456.03;;;17.01;86.98
49311;BME280;35177;45.900;5.946;2023-06-22T01:36:32;97442.13;;;16.88;87.21
49311;BME280;35177;45.900;5.946;2023-06-22T01:38:59;97434.13;;;16.88;87.10
49311;BME280;35177;45.900;5.946;2023-06-22T01:41:26;97428.50;;;16.91;87.62
49311;BME280;35177;45.900;5.946;2023-06-22T01:43:53;97426.34;;;17.04;87.27
49311;BME280;35177;45.900;5.946;2023-06-22T01:46:20;97433.22;;;17.06;86.52
49311;BME280;35177;45.900;5.946;2023-06-22T01:48:47;97431.50;;;17.15;85.65
49311;BME280;35177;45.900;5.946;2023-06-22T01:51:13;97421.84;;;17.04;86.82
49311;BME280;35177;45.900;5.946;2023-06-22T01:53:39;97418.34;;;16.94;86.54
49311;BME280;35177;45.900;5.946;2023-06-22T01:56:04;97432.81;;;17.01;86.87
49311;BME280;35177;45.900;5.946;2023-06-22T01:58:31;97429.59;;;16.98;86.77
49311;BME280;35177;45.900;5.946;2023-06-22T02:03:41;97441.84;;;17.00;86.19
49311;BME280;35177;45.900;5.946;2023-06-22T02:06:11;97437.19;;;17.02;86.60
49311;BME280;35177;45.900;5.946;2023-06-22T02:08:43;97442.38;;;17.04;85.18
49311;BME280;35177;45.900;5.946;2023-06-22T02:11:13;97441.97;;;16.89;85.61
49311;BME280;35177;45.900;5.946;2023-06-22T02:13:40;97439.91;;;16.83;85.80
49311;BME280;35177;45.900;5.946;2023-06-22T02:16:10;97443.41;;;16.93;86.52
49311;BME280;35177;45.900;5.946;2023-06-22T02:18:36;97433.84;;;16.81;85.53
49311;BME280;35177;45.900;5.946;2023-06-22T02:21:02;97429.38;;;16.72;86.26
49311;BME280;35177;45.900;5.946;2023-06-22T02:23:28;97433.25;;;16.87;85.37
49311;BME280;35177;45.900;5.946;2023-06-22T02:25:54;97435.84;;;16.70;85.89
49311;BME280;35177;45.900;5.946;2023-06-22T02:28:19;97445.56;;;16.61;86.44
49311;BME280;35177;45.900;5.946;2023-06-22T02:30:45;97442.88;;;16.61;87.76
49311;BME280;35177;45.900;5.946;2023-06-22T02:33:11;97439.19;;;16.81;86.54
49311;BME280;35177;45.900;5.946;2023-06-22T02:35:37;97444.38;;;16.92;85.70
49311;BME280;35177;45.900;5.946;2023-06-22T02:38:03;97436.09;;;16.47;88.38
49311;BME280;35177;45.900;5.946;2023-06-22T02:40:29;97436.97;;;16.67;86.97
49311;BME280;35177;45.900;5.946;2023-06-22T02:42:55;97443.16;;;16.58;86.99
49311;BME280;35177;45.900;5.946;2023-06-22T02:45:23;97446.78;;;16.47;87.18
49311;BME280;35177;45.900;5.946;2023-06-22T02:47:48;97440.03;;;16.34;87.09
49311;BME280;35177;45.900;5.946;2023-06-22T02:50:14;97442.84;;;16.32;86.28
49311;BME280;35177;45.900;5.946;2023-06-22T02:52:39;97436.13;;;16.19;86.15
49311;BME280;35177;45.900;5.946;2023-06-22T02:55:06;97437.50;;;16.13;86.69
49311;BME280;35177;45.900;5.946;2023-06-22T02:57:32;97437.78;;;16.29;86.28
49311;BME280;35177;45.900;5.946;2023-06-22T02:59:58;97440.47;;;16.29;86.81
49311;BME280;35177;45.900;5.946;2023-06-22T03:02:24;97437.66;;;16.40;86.12
49311;BME280;35177;45.900;5.946;2023-06-22T03:04:49;97432.59;;;16.47;85.82
49311;BME280;35177;45.900;5.946;2023-06-22T03:07:15;97432.72;;;16.45;86.26
49311;BME280;35177;45.900;5.946;2023-06-22T03:09:42;97432.59;;;16.66;86.20
49311;BME280;35177;45.900;5.946;2023-06-22T03:12:08;97428.53;;;16.62;87.05
49311;BME280;35177;45.900;5.946;2023-06-22T03:14:34;97428.09;;;16.57;86.80
49311;BME280;35177;45.900;5.946;2023-06-22T03:16:59;97434.56;;;16.64;86.02
49311;BME280;35177;45.900;5.946;2023-06-22T03:19:29;97430.66;;;16.58;86.69
49311;BME280;35177;45.900;5.946;2023-06-22T03:21:57;97428.41;;;16.54;85.95
49311;BME280;35177;45.900;5.946;2023-06-22T03:24:22;97435.81;;;16.50;86.29
49311;BME280;35177;45.900;5.946;2023-06-22T03:26:48;97431.91;;;16.54;87.28
49311;BME280;35177;45.900;5.946;2023-06-22T03:29:13;97434.69;;;16.43;86.47
49311;BME280;35177;45.900;5.946;2023-06-22T03:31:39;97434.53;;;16.45;86.97
49311;BME280;35177;45.900;5.946;2023-06-22T03:34:05;97438.66;;;16.30;88.73
49311;BME280;35177;45.900;5.946;2023-06-22T03:36:30;97449.88;;;16.33;88.02
49311;BME280;35177;45.900;5.946;2023-06-22T03:38:56;97445.97;;;16.37;87.40
49311;BME280;35177;45.900;5.946;2023-06-22T03:41:21;97459.44;;;16.07;87.10
49311;BME280;35177;45.900;5.946;2023-06-22T03:43:46;97464.47;;;16.20;87.54
49311;BME280;35177;45.900;5.946;2023-06-22T03:46:12;97471.66;;;16.38;88.27
49311;BME280;35177;45.900;5.946;2023-06-22T03:48:38;97468.28;;;16.27;88.17
49311;BME280;35177;45.900;5.946;2023-06-22T03:51:03;97461.53;;;16.23;88.90
49311;BME280;35177;45.900;5.946;2023-06-22T03:53:29;97472.66;;;16.37;88.77
49311;BME280;35177;45.900;5.946;2023-06-22T03:55:55;97494.72;;;16.39;89.86
49311;BME280;35177;45.900;5.946;2023-06-22T03:58:21;97508.38;;;16.46;88.52
49311;BME280;35177;45.900;5.946;2023-06-22T04:00:48;97521.78;;;16.65;88.12
49311;BME280;35177;45.900;5.946;2023-06-22T04:03:14;97530.63;;;16.65;88.32
49311;BME280;35177;45.900;5.946;2023-06-22T04:05:40;97537.75;;;16.46;89.50
49311;BME280;35177;45.900;5.946;2023-06-22T04:08:06;97548.91;;;16.70;89.03
49311;BME280;35177;45.900;5.946;2023-06-22T04:10:31;97566.50;;;16.73;89.26
49311;BME280;35177;45.900;5.946;2023-06-22T04:12:57;97565.66;;;16.82;88.30
49311;BME280;35177;45.900;5.946;2023-06-22T04:15:22;97569.84;;;16.94;88.20
49311;BME280;35177;45.900;5.946;2023-06-22T04:17:48;97568.28;;;17.10;88.13
49311;BME280;35177;45.900;5.946;2023-06-22T04:20:13;97587.16;;;16.99;88.51
49311;BME280;35177;45.900;5.946;2023-06-22T04:22:39;97617.28;;;17.20;87.38
49311;BME280;35177;45.900;5.946;2023-06-22T04:25:05;97634.03;;;17.22;87.88
49311;BME280;35177;45.900;5.946;2023-06-22T04:27:33;97673.16;;;17.04;88.93
49311;BME280;35177;45.900;5.946;2023-06-22T04:30:03;97651.47;;;17.26;88.00
49311;BME280;35177;45.900;5.946;2023-06-22T04:32:29;97708.22;;;17.40;87.71
49311;BME280;35177;45.900;5.946;2023-06-22T04:34:54;97674.69;;;17.35;87.61
49311;BME280;35177;45.900;5.946;2023-06-22T04:37:20;97675.13;;;17.41;87.61
49311;BME280;35177;45.900;5.946;2023-06-22T04:39:49;97697.09;;;17.44;86.94
49311;BME280;35177;45.900;5.946;2023-06-22T04:42:15;97723.03;;;17.63;86.78
49311;BME280;35177;45.900;5.946;2023-06-22T04:44:40;97716.09;;;17.31;88.66
49311;BME280;35177;45.900;5.946;2023-06-22T04:47:07;97675.84;;;17.52;88.06
49311;BME280;35177;45.900;5.946;2023-06-22T04:49:36;97684.28;;;17.67;86.74
49311;BME280;35177;45.900;5.946;2023-06-22T04:52:03;97675.25;;;17.77;86.28
49311;BME280;35177;45.900;5.946;2023-06-22T04:54:29;97693.03;;;17.59;88.16
49311;BME280;35177;45.900;5.946;2023-06-22T04:57:04;97711.03;;;17.48;88.95
49311;BME280;35177;45.900;5.946;2023-06-22T04:59:36;97693.84;;;17.41;88.57
49311;BME280;35177;45.900;5.946;2023-06-22T05:02:02;97694.69;;;17.31;89.05
49311;BME280;35177;45.900;5.946;2023-06-22T05:04:29;97705.66;;;17.38;89.73
49311;BME280;35177;45.900;5.946;2023-06-22T05:06:59;97695.81;;;17.38;89.19
49311;BME280;35177;45.900;5.946;2023-06-22T05:09:25;97698.91;;;17.34;88.40
49311;BME280;35177;45.900;5.946;2023-06-22T05:11:51;97678.38;;;17.25;88.12
49311;BME280;35177;45.900;5.946;2023-06-22T05:14:17;97679.66;;;17.30;88.12
49311;BME280;35177;45.900;5.946;2023-06-22T05:16:44;97728.19;;;17.16;88.54
49311;BME280;35177;45.900;5.946;2023-06-22T05:19:09;97697.53;;;17.30;88.78
49311;BME280;35177;45.900;5.946;2023-06-22T05:21:35;97676.66;;;17.33;87.90
49311;BME280;35177;45.900;5.946;2023-06-22T05:24:01;97682.44;;;17.38;88.68
49311;BME280;35177;45.900;5.946;2023-06-22T05:26:29;97693.28;;;17.47;88.29
49311;BME280;35177;45.900;5.946;2023-06-22T05:28:55;97682.88;;;17.44;87.68
49311;BME280;35177;45.900;5.946;2023-06-22T05:31:21;97650.50;;;17.47;87.41
49311;BME280;35177;45.900;5.946;2023-06-22T05:33:47;97645.28;;;17.55;87.39
49311;BME280;35177;45.900;5.946;2023-06-22T05:36:14;97651.91;;;17.70;85.98
49311;BME280;35177;45.900;5.946;2023-06-22T05:38:40;97662.28;;;17.82;85.40
49311;BME280;35177;45.900;5.946;2023-06-22T05:41:06;97679.88;;;17.85;85.06
49311;BME280;35177;45.900;5.946;2023-06-22T05:43:31;97658.34;;;17.86;85.53
49311;BME280;35177;45.900;5.946;2023-06-22T05:45:58;97609.88;;;17.80;86.37
49311;BME280;35177;45.900;5.946;2023-06-22T05:48:23;97632.16;;;17.71;87.11
49311;BME280;35177;45.900;5.946;2023-06-22T05:50:49;97643.31;;;17.57;88.10
49311;BME280;35177;45.900;5.946;2023-06-22T05:53:16;97638.53;;;17.60;88.33
49311;BME280;35177;45.900;5.946;2023-06-22T05:55:42;97625.13;;;17.70;88.08
49311;BME280;35177;45.900;5.946;2023-06-22T05:58:08;97636.78;;;17.88;87.06
49311;BME280;35177;45.900;5.946;2023-06-22T06:00:34;97630.38;;;17.98;86.34
49311;BME280;35177;45.900;5.946;2023-06-22T06:02:59;97638.25;;;18.10;85.88
49311;BME280;35177;45.900;5.946;2023-06-22T06:05:32;97640.75;;;18.21;84.63
49311;BME280;35177;45.900;5.946;2023-06-22T06:07:59;97632.50;;;18.32;83.96
49311;BME280;35177;45.900;5.946;2023-06-22T06:10:25;97649.22;;;18.43;83.66
49311;BME280;35177;45.900;5.946;2023-06-22T06:12:51;97652.06;;;18.51;83.77
49311;BME280;35177;45.900;5.946;2023-06-22T06:15:17;97648.59;;;18.59;82.72
49311;BME280;35177;45.900;5.946;2023-06-22T06:17:52;97649.84;;;18.64;82.23
49311;BME280;35177;45.900;5.946;2023-06-22T06:20:20;97671.81;;;18.68;83.72
49311;BME280;35177;45.900;5.946;2023-06-22T06:22:46;97661.09;;;18.41;85.36
49311;BME280;35177;45.900;5.946;2023-06-22T06:25:12;97655.31;;;18.45;85.93
49311;BME280;35177;45.900;5.946;2023-06-22T06:27:45;97647.53;;;18.42;85.99
49311;BME280;35177;45.900;5.946;2023-06-22T06:30:12;97633.88;;;18.36;85.85
49311;BME280;35177;45.900;5.946;2023-06-22T06:32:38;97630.22;;;18.10;87.99
49311;BME280;35177;45.900;5.946;2023-06-22T06:35:08;97628.47;;;17.91;88.72
49311;BME280;35177;45.900;5.946;2023-06-22T06:37:41;97623.56;;;18.14;87.94
49311;BME280;35177;45.900;5.946;2023-06-22T06:40:08;97616.47;;;18.22;87.44
49311;BME280;35177;45.900;5.946;2023-06-22T06:42:42;97612.63;;;18.34;87.57
49311;BME280;35177;45.900;5.946;2023-06-22T06:45:28;97641.22;;;18.34;86.56
49311;BME280;35177;45.900;5.946;2023-06-22T06:47:54;97655.09;;;18.20;87.62
49311;BME280;35177;45.900;5.946;2023-06-22T06:50:20;97628.53;;;18.36;86.70
49311;BME280;35177;45.900;5.946;2023-06-22T06:52:45;97636.31;;;18.29;87.53
49311;BME280;35177;45.900;5.946;2023-06-22T06:55:11;97638.75;;;18.23;88.91
49311;BME280;35177;45.900;5.946;2023-06-22T06:57:40;97619.56;;;18.27;88.80
49311;BME280;35177;45.900;5.946;2023-06-22T07:00:11;97626.75;;;18.27;88.74
49311;BME280;35177;45.900;5.946;2023-06-22T07:02:39;97617.50;;;18.48;87.82
49311;BME280;35177;45.900;5.946;2023-06-22T07:05:08;97611.41;;;18.56;87.32
49311;BME280;35177;45.900;5.946;2023-06-22T07:07:34;97594.41;;;18.65;87.50
49311;BME280;35177;45.900;5.946;2023-06-22T07:10:00;97596.31;;;18.72;87.47
49311;BME280;35177;45.900;5.946;2023-06-22T07:12:25;97587.53;;;18.80;86.33
49311;BME280;35177;45.900;5.946;2023-06-22T07:14:52;97589.16;;;18.91;86.77
49311;BME280;35177;45.900;5.946;2023-06-22T07:17:17;97589.50;;;18.96;86.24
49311;BME280;35177;45.900;5.946;2023-06-22T07:19:43;97578.25;;;19.10;85.61
49311;BME280;35177;45.900;5.946;2023-06-22T07:22:08;97567.28;;;19.21;84.76
49311;BME280;35177;45.900;5.946;2023-06-22T07:24:34;97581.53;;;19.39;84.63
49311;BME280;35177;45.900;5.946;2023-06-22T07:26:59;97579.66;;;19.57;83.34
49311;BME280;35177;45.900;5.946;2023-06-22T07:29:25;97566.66;;;19.70;83.22
49311;BME280;35177;45.900;5.946;2023-06-22T07:31:52;97567.03;;;19.75;82.71
49311;BME280;35177;45.900;5.946;2023-06-22T07:34:18;97555.97;;;19.78;83.19
49311;BME280;35177;45.900;5.946;2023-06-22T07:36:44;97559.63;;;19.69;82.96
49311;BME280;35177;45.900;5.946;2023-06-22T07:39:09;97554.25;;;19.69;83.58
49311;BME280;35177;45.900;5.946;2023-06-22T07:41:35;97540.13;;;19.67;82.19
49311;BME280;35177;45.900;5.946;2023-06-22T07:44:02;97545.34;;;19.69;82.25
49311;BME280;35177;45.900;5.946;2023-06-22T07:46:28;97541.19;;;19.74;82.52
49311;BME280;35177;45.900;5.946;2023-06-22T07:48:56;97544.91;;;19.81;82.37
49311;BME280;35177;45.900;5.946;2023-06-22T07:51:21;97540.63;;;19.96;80.98
49311;BME280;35177;45.900;5.946;2023-06-22T07:53:47;97536.78;;;19.99;81.72
49311;BME280;35177;45.900;5.946;2023-06-22T07:56:13;97542.34;;;20.05;81.90
49311;BME280;35177;45.900;5.946;2023-06-22T07:58:39;97532.31;;;20.16;81.06
49311;BME280;35177;45.900;5.946;2023-06-22T08:01:04;97529.34;;;20.27;81.66
49311;BME280;35177;45.900;5.946;2023-06-22T08:03:31;97529.72;;;20.32;81.18
49311;BME280;35177;45.900;5.946;2023-06-22T08:05:57;97512.25;;;20.36;80.53
49311;BME280;35177;45.900;5.946;2023-06-22T08:08:22;97518.28;;;20.38;81.24
49311;BME280;35177;45.900;5.946;2023-06-22T08:10:48;97526.03;;;20.41;83.10
49311;BME280;35177;45.900;5.946;2023-06-22T08:13:13;97535.34;;;20.21;83.34
49311;BME280;35177;45.900;5.946;2023-06-22T08:15:39;97540.72;;;20.21;81.15
49311;BME280;35177;45.900;5.946;2023-06-22T08:18:05;97519.22;;;20.21;82.39
49311;BME280;35177;45.900;5.946;2023-06-22T08:20:30;97523.41;;;20.15;82.49
49311;BME280;35177;45.900;5.946;2023-06-22T08:22:56;97511.44;;;20.09;83.49
49311;BME280;35177;45.900;5.946;2023-06-22T08:25:23;97513.31;;;20.17;83.07
49311;BME280;35177;45.900;5.946;2023-06-22T08:27:48;97512.91;;;20.30;82.34
49311;BME280;35177;45.900;5.946;2023-06-22T08:30:15;97536.75;;;20.25;82.24
49311;BME280;35177;45.900;5.946;2023-06-22T08:32:40;97513.22;;;20.27;81.92
49311;BME280;35177;45.900;5.946;2023-06-22T08:35:06;97516.63;;;20.45;81.44
49311;BME280;35177;45.900;5.946;2023-06-22T08:37:33;97505.56;;;20.48;81.49
49311;BME280;35177;45.900;5.946;2023-06-22T08:40:03;97521.72;;;20.56;81.09
49311;BME280;35177;45.900;5.946;2023-06-22T08:42:33;97528.94;;;20.55;81.09
49311;BME280;35177;45.900;5.946;2023-06-22T08:44:59;97545.25;;;20.62;80.35
49311;BME280;35177;45.900;5.946;2023-06-22T08:47:27;97548.28;;;20.67;80.26
49311;BME280;35177;45.900;5.946;2023-06-22T08:49:53;97548.25;;;20.59;81.33
49311;BME280;35177;45.900;5.946;2023-06-22T08:52:18;97557.25;;;20.34;82.38
49311;BME280;35177;45.900;5.946;2023-06-22T08:54:45;97562.81;;;20.40;83.38
49311;BME280;35177;45.900;5.946;2023-06-22T08:57:11;97559.31;;;20.48;83.46
49311;BME280;35177;45.900;5.946;2023-06-22T08:59:36;97570.13;;;20.56;84.21
49311;BME280;35177;45.900;5.946;2023-06-22T09:02:02;97592.63;;;20.55;84.75
49311;BME280;35177;45.900;5.946;2023-06-22T09:04:27;97605.75;;;20.66;84.36
49311;BME280;35177;45.900;5.946;2023-06-22T09:06:52;97614.44;;;20.52;84.05
49311;BME280;35177;45.900;5.946;2023-06-22T09:09:18;97609.97;;;20.27;85.83
49311;BME280;35177;45.900;5.946;2023-06-22T09:11:44;97626.56;;;20.22;85.88
49311;BME280;35177;45.900;5.946;2023-06-22T09:14:10;97626.78;;;20.29;85.74
49311;BME280;35177;45.900;5.946;2023-06-22T09:16:36;97637.53;;;20.29;86.79
49311;BME280;35177;45.900;5.946;2023-06-22T09:19:02;97639.69;;;20.25;86.50
49311;BME280;35177;45.900;5.946;2023-06-22T09:21:28;97640.56;;;20.26;87.02
49311;BME280;35177;45.900;5.946;2023-06-22T09:23:54;97646.34;;;20.21;86.59
49311;BME280;35177;45.900;5.946;2023-06-22T09:26:20;97645.53;;;20.21;85.87
49311;BME280;35177;45.900;5.946;2023-06-22T09:28:46;97651.44;;;20.24;84.40
49311;BME280;35177;45.900;5.946;2023-06-22T09:31:11;97646.06;;;20.24;84.88
49311;BME280;35177;45.900;5.946;2023-06-22T09:33:37;97636.22;;;20.33;83.83
49311;BME280;35177;45.900;5.946;2023-06-22T09:36:06;97620.91;;;20.33;84.03
49311;BME280;35177;45.900;5.946;2023-06-22T09:38:41;97633.44;;;20.50;82.06
49311;BME280;35177;45.900;5.946;2023-06-22T09:41:06;97644.47;;;20.89;75.83
49311;BME280;35177;45.900;5.946;2023-06-22T09:43:32;97646.16;;;20.90;78.81
49311;BME280;35177;45.900;5.946;2023-06-22T09:46:00;97625.69;;;20.97;77.91
49311;BME280;35177;45.900;5.946;2023-06-22T09:48:27;97629.47;;;21.36;74.38
49311;BME280;35177;45.900;5.946;2023-06-22T09:50:53;97614.28;;;21.19;74.38
49311;BME280;35177;45.900;5.946;2023-06-22T09:53:19;97610.28;;;21.39;70.66
49311;BME280;35177;45.900;5.946;2023-06-22T09:55:44;97621.38;;;21.36;74.65
49311;BME280;35177;45.900;5.946;2023-06-22T09:58:10;97606.88;;;21.37;74.05
49311;BME280;35177;45.900;5.946;2023-06-22T10:00:35;97603.69;;;21.42;73.80
49311;BME280;35177;45.900;5.946;2023-06-22T10:03:01;97623.22;;;21.36;78.15
49311;BME280;35177;45.900;5.946;2023-06-22T10:05:26;97623.22;;;21.28;79.85
49311;BME280;35177;45.900;5.946;2023-06-22T10:07:52;97617.00;;;21.35;80.61
49311;BME280;35177;45.900;5.946;2023-06-22T10:10:17;97639.72;;;21.49;80.73
49311;BME280;35177;45.900;5.946;2023-06-22T10:12:46;97658.38;;;21.42;82.84
49311;BME280;35177;45.900;5.946;2023-06-22T10:15:11;97653.69;;;21.36;83.21
49311;BME280;35177;45.900;5.946;2023-06-22T10:17:37;97632.31;;;21.27;82.71
49311;BME280;35177;45.900;5.946;2023-06-22T10:20:03;97613.97;;;21.22;84.45
49311;BME280;35177;45.900;5.946;2023-06-22T10:22:40;97617.16;;;21.26;83.65
49311;BME280;35177;45.900;5.946;2023-06-22T10:25:07;97644.91;;;21.26;83.09
49311;BME280;35177;45.900;5.946;2023-06-22T10:27:33;97648.13;;;21.30;81.79
49311;BME280;35177;45.900;5.946;2023-06-22T10:29:59;97605.06;;;21.30;82.80
49311;BME280;35177;45.900;5.946;2023-06-22T10:32:24;97604.41;;;21.28;81.98
49311;BME280;35177;45.900;5.946;2023-06-22T10:34:50;97619.19;;;21.32;81.99
49311;BME280;35177;45.900;5.946;2023-06-22T10:37:15;97631.78;;;21.23;84.16
49311;BME280;35177;45.900;5.946;2023-06-22T10:39:41;97629.41;;;21.12;85.54
49311;BME280;35177;45.900;5.946;2023-06-22T10:42:07;97616.25;;;21.01;86.33
49311;BME280;35177;45.900;5.946;2023-06-22T10:44:32;97612.94;;;21.15;86.69
49311;BME280;35177;45.900;5.946;2023-06-22T10:46:58;97597.16;;;21.20;84.67
49311;BME280;35177;45.900;5.946;2023-06-22T10:49:23;97617.84;;;21.28;83.94
49311;BME280;35177;45.900;5.946;2023-06-22T10:51:49;97637.53;;;21.36;84.74
49311;BME280;35177;45.900;5.946;2023-06-22T10:54:14;97643.59;;;21.47;84.92
49311;BME280;35177;45.900;5.946;2023-06-22T10:56:42;97650.34;;;21.51;84.53
49311;BME280;35177;45.900;5.946;2023-06-22T10:59:07;97640.22;;;21.53;83.74
49311;BME280;35177;45.900;5.946;2023-06-22T11:01:33;97657.22;;;21.45;85.37
49311;BME280;35177;45.900;5.946;2023-06-22T11:03:58;97646.94;;;21.40;85.00
49311;BME280;35177;45.900;5.946;2023-06-22T11:06:24;97633.66;;;21.47;85.91
49311;BME280;35177;45.900;5.946;2023-06-22T11:08:49;97624.75;;;21.55;83.84
49311;BME280;35177;45.900;5.946;2023-06-22T11:11:15;97644.59;;;21.54;84.00
49311;BME280;35177;45.900;5.946;2023-06-22T11:13:43;97647.13;;;21.55;83.06
49311;BME280;35177;45.900;5.946;2023-06-22T11:16:09;97648.63;;;21.50;81.08
49311;BME280;35177;45.900;5.946;2023-06-22T11:18:35;97653.03;;;21.51;79.23
49311;BME280;35177;45.900;5.946;2023-06-22T11:21:01;97664.78;;;21.50;79.89
49311;BME280;35177;45.900;5.946;2023-06-22T11:23:27;97670.19;;;21.50;79.56
49311;BME280;35177;45.900;5.946;2023-06-22T11:25:54;97674.91;;;21.56;78.19
49311;BME280;35177;45.900;5.946;2023-06-22T11:28:19;97666.66;;;21.57;78.69
49311;BME280;35177;45.900;5.946;2023-06-22T11:30:45;97657.22;;;21.61;78.50
49311;BME280;35177;45.900;5.946;2023-06-22T11:33:10;97655.72;;;21.67;77.41
49311;BME280;35177;45.900;5.946;2023-06-22T11:35:36;97660.56;;;21.79;75.59
49311;BME280;35177;45.900;5.946;2023-06-22T11:38:01;97672.56;;;22.01;74.94
49311;BME280;35177;45.900;5.946;2023-06-22T11:40:28;97665.75;;;22.29;74.04
49311;BME280;35177;45.900;5.946;2023-06-22T11:42:54;97668.41;;;22.53;74.07
49311;BME280;35177;45.900;5.946;2023-06-22T11:45:19;97672.72;;;22.70;68.91
49311;BME280;35177;45.900;5.946;2023-06-22T11:47:45;97676.72;;;22.83;70.36
49311;BME280;35177;45.900;5.946;2023-06-22T11:50:11;97670.50;;;23.43;69.49
49311;BME280;35177;45.900;5.946;2023-06-22T11:52:36;97662.63;;;24.31;67.04
49311;BME280;35177;45.900;5.946;2023-06-22T11:55:02;97657.78;;;24.27;66.18
49311;BME280;35177;45.900;5.946;2023-06-22T11:57:32;97654.78;;;23.84;65.10
49311;BME280;35177;45.900;5.946;2023-06-22T11:59:58;97658.94;;;23.72;66.14
49311;BME280;35177;45.900;5.946;2023-06-22T12:02:23;97659.91;;;23.79;66.16
49311;BME280;35177;45.900;5.946;2023-06-22T12:04:48;97667.94;;;23.87;64.76
49311;BME280;35177;45.900;5.946;2023-06-22T12:07:17;97672.88;;;24.06;66.40
49311;BME280;35177;45.900;5.946;2023-06-22T12:09:43;97671.47;;;24.10;66.14
49311;BME280;35177;45.900;5.946;2023-06-22T12:12:09;97670.81;;;24.08;65.99
49311;BME280;35177;45.900;5.946;2023-06-22T12:14:35;97666.53;;;24.14;64.13
49311;BME280;35177;45.900;5.946;2023-06-22T12:17:00;97656.38;;;24.16;61.45
49311;BME280;35177;45.900;5.946;2023-06-22T12:19:26;97651.16;;;24.14;62.33
49311;BME280;35177;45.900;5.946;2023-06-22T12:21:51;97657.22;;;24.16;62.37
49311;BME280;35177;45.900;5.946;2023-06-22T12:24:17;97647.91;;;24.34;60.72
49311;BME280;35177;45.900;5.946;2023-06-22T12:26:42;97645.09;;;24.56;59.62
49311;BME280;35177;45.900;5.946;2023-06-22T12:29:08;97642.03;;;24.74;57.46
49311;BME280;35177;45.900;5.946;2023-06-22T12:31:33;97643.31;;;24.93;58.35
49311;BME280;35177;45.900;5.946;2023-06-22T12:33:59;97652.91;;;24.95;58.37
49311;BME280;35177;45.900;5.946;2023-06-22T12:36:24;97650.47;;;25.00;58.93
49311;BME280;35177;45.900;5.946;2023-06-22T12:38:50;97636.94;;;25.00;59.52
49311;BME280;35177;45.900;5.946;2023-06-22T12:41:17;97626.41;;;24.91;60.03
49311;BME280;35177;45.900;5.946;2023-06-22T12:43:42;97634.38;;;24.92;56.08
49311;BME280;35177;45.900;5.946;2023-06-22T12:46:08;97617.25;;;25.06;57.13
49311;BME280;35177;45.900;5.946;2023-06-22T12:48:33;97624.06;;;25.23;57.49
49311;BME280;35177;45.900;5.946;2023-06-22T12:50:58;97605.28;;;25.58;54.50
49311;BME280;35177;45.900;5.946;2023-06-22T12:53:24;97596.59;;;25.90;55.20
49311;BME280;35177;45.900;5.946;2023-06-22T12:55:52;97588.13;;;26.27;51.87
49311;BME280;35177;45.900;5.946;2023-06-22T12:58:17;97596.00;;;26.22;52.93
49311;BME280;35177;45.900;5.946;2023-06-22T13:00:43;97587.59;;;26.85;53.34
49311;BME280;35177;45.900;5.946;2023-06-22T13:03:10;97584.88;;;26.51;53.53
49311;BME280;35177;45.900;5.946;2023-06-22T13:05:35;97584.97;;;26.64;54.53
49311;BME280;35177;45.900;5.946;2023-06-22T13:08:01;97587.50;;;26.32;57.57